createdAt,value
2023-02-04T00:00:18.320Z,97344.20
2023-02-04T00:03:41.497Z,97346.85
2023-02-04T00:06:44.652Z,97343.76
2023-02-04T00:09:49.868Z,97346.95
2023-02-04T00:12:53.082Z,97337.64
2023-02-04T00:15:56.299Z,97334.23
2023-02-04T00:18:59.618Z,97333.40
2023-02-04T00:22:04.014Z,97329.90
2023-02-04T00:25:07.829Z,97324.16
2023-02-04T00:28:11.110Z,97325.70
2023-02-04T00:31:14.402Z,97331.36
2023-02-04T00:34:18.492Z,97335.01
2023-02-04T00:37:22.402Z,97331.42
2023-02-04T00:40:25.597Z,97336.16
2023-02-04T00:43:28.819Z,97331.88
2023-02-04T00:46:32.197Z,97333.34
2023-02-04T00:49:35.462Z,97333.84
2023-02-04T00:52:38.662Z,97327.77
2023-02-04T00:55:42.170Z,97327.40
2023-02-04T00:58:45.441Z,97321.66
2023-02-04T01:01:48.674Z,97322.22
2023-02-04T01:04:51.907Z,97325.02
2023-02-04T01:07:55.149Z,97335.30
2023-02-04T01:10:58.507Z,97343.68
2023-02-04T01:14:02.691Z,97355.93
2023-02-04T01:17:06.216Z,97363.52
2023-02-04T01:20:10.776Z,97359.17
2023-02-04T01:23:14.014Z,97356.87
2023-02-04T01:26:19.086Z,97350.59
2023-02-04T01:29:22.314Z,97355.71
2023-02-04T01:32:27.223Z,97362.32
2023-02-04T01:35:30.482Z,97367.87
2023-02-04T01:38:34.066Z,97367.97
2023-02-04T01:41:37.415Z,97370.90
2023-02-04T01:44:40.973Z,97369.95
2023-02-04T01:47:46.018Z,97375.38
2023-02-04T01:50:51.016Z,97382.34
2023-02-04T01:53:55.438Z,97388.48
2023-02-04T01:56:58.707Z,97388.96
2023-02-04T02:00:01.949Z,97389.98
2023-02-04T02:03:15.283Z,97388.25
2023-02-04T02:06:19.710Z,97392.33
2023-02-04T02:09:23.850Z,97391.73
2023-02-04T02:12:27.108Z,97402.02
2023-02-04T02:15:30.387Z,97398.95
2023-02-04T02:18:33.834Z,97408.50
2023-02-04T02:21:43.828Z,97407.33
2023-02-04T02:24:47.075Z,97414.94
2023-02-04T02:27:50.501Z,97421.33
2023-02-04T02:30:53.888Z,97421.42
2023-02-04T02:33:57.367Z,97425.53
2023-02-04T02:37:02.190Z,97427.04
2023-02-04T02:40:07.067Z,97440.45
2023-02-04T02:43:16.382Z,97442.80
2023-02-04T02:46:19.741Z,97445.79
2023-02-04T02:49:23.579Z,97448.31
2023-02-04T02:52:26.918Z,97454.41
2023-02-04T02:55:30.713Z,97463.45
2023-02-04T02:58:36.479Z,97464.16
2023-02-04T03:01:40.285Z,97477.20
2023-02-04T03:04:48.518Z,97484.58
2023-02-04T03:07:52.328Z,97491.61
2023-02-04T03:10:55.876Z,97499.11
2023-02-04T03:14:04.007Z,97505.03
2023-02-04T03:17:10.219Z,97515.27
2023-02-04T03:20:15.615Z,97521.27
2023-02-04T03:23:20.311Z,97527.66
2023-02-04T03:26:25.797Z,97538.39
2023-02-04T03:29:29.920Z,97544.15
2023-02-04T03:32:33.359Z,97557.97
2023-02-04T03:35:36.576Z,97573.81
2023-02-04T03:38:39.846Z,97593.75
2023-02-04T03:41:43.376Z,97620.20
2023-02-04T03:44:46.613Z,97630.11
2023-02-04T03:47:49.760Z,97655.23
2023-02-04T03:50:53.011Z,97662.41
2023-02-04T03:53:56.254Z,97691.85
2023-02-04T03:56:59.582Z,97714.23
2023-02-04T04:00:02.858Z,97736.43
2023-02-04T04:03:14.966Z,97756.67
2023-02-04T04:06:18.459Z,97781.44
2023-02-04T04:09:21.983Z,97796.38
2023-02-04T04:12:25.478Z,97826.65
2023-02-04T04:15:28.836Z,97843.94
2023-02-04T04:18:33.061Z,97855.65
2023-02-04T04:21:36.261Z,97876.10
2023-02-04T04:24:39.476Z,97898.40
2023-02-04T04:27:42.742Z,97917.00
2023-02-04T04:30:46.035Z,97935.39
2023-02-04T04:33:49.240Z,97952.42
2023-02-04T04:36:52.445Z,97966.79
2023-02-04T04:39:55.749Z,97987.66
2023-02-04T04:42:58.975Z,98004.15
2023-02-04T04:46:02.153Z,98029.08
2023-02-04T04:49:05.318Z,98044.66
2023-02-04T04:52:08.542Z,98064.09
2023-02-04T04:55:11.769Z,98079.75
2023-02-04T04:58:14.976Z,98096.96
2023-02-04T05:01:19.139Z,98112.63
2023-02-04T05:04:22.536Z,98125.20
2023-02-04T05:07:25.953Z,98140.13
2023-02-04T05:10:29.332Z,98168.52
2023-02-04T05:13:32.783Z,98185.22
2023-02-04T05:16:36.122Z,98198.63
2023-02-04T05:19:39.510Z,98228.10
2023-02-04T05:22:42.841Z,98240.48
2023-02-04T05:25:46.152Z,98251.09
2023-02-04T05:28:49.536Z,98272.27
2023-02-04T05:31:52.937Z,98289.39
2023-02-04T05:34:56.279Z,98298.67
2023-02-04T05:37:59.703Z,98328.38
2023-02-04T05:41:03.047Z,98349.95
2023-02-04T05:44:06.429Z,98361.76
2023-02-04T05:47:09.800Z,98377.77
2023-02-04T05:50:13.455Z,98393.83
2023-02-04T05:53:30.574Z,98413.09
2023-02-04T05:56:34.004Z,98426.59
2023-02-04T05:59:37.344Z,98439.98
2023-02-04T06:02:40.649Z,98459.33
2023-02-04T06:05:44.379Z,98479.61
2023-02-04T06:08:47.782Z,98486.70
2023-02-04T06:11:51.180Z,98508.27
2023-02-04T06:14:54.571Z,98519.32
2023-02-04T06:17:58.581Z,98538.26
2023-02-04T06:21:04.764Z,98547.61
2023-02-04T06:24:08.143Z,98566.89
2023-02-04T06:27:11.637Z,98581.34
2023-02-04T06:30:16.281Z,98587.13
2023-02-04T06:33:19.685Z,98609.06
2023-02-04T06:36:22.979Z,98628.33
2023-02-04T06:39:26.437Z,98632.67
2023-02-04T06:50:00.068Z,98680.88
2023-02-04T06:53:03.479Z,98695.02
2023-02-04T06:56:06.980Z,98707.69
2023-02-04T06:59:11.202Z,98722.23
2023-02-04T07:02:14.507Z,98732.67
2023-02-04T07:05:17.993Z,98753.56
2023-02-04T07:08:24.037Z,98765.37
2023-02-04T07:11:27.230Z,98779.31
2023-02-04T07:14:30.433Z,98796.69
2023-02-04T07:17:33.685Z,98804.90
2023-02-04T07:20:36.996Z,98816.55
2023-02-04T07:23:40.281Z,98826.18
2023-02-04T07:26:43.598Z,98834.97
2023-02-04T07:29:46.990Z,98840.48
2023-02-04T07:32:50.299Z,98854.45
2023-02-04T07:35:53.525Z,98860.16
2023-02-04T07:38:56.693Z,98868.00
2023-02-04T07:41:59.918Z,98875.85
2023-02-04T07:45:08.787Z,98878.23
2023-02-04T07:48:12.074Z,98884.27
2023-02-04T07:51:15.397Z,98893.36
2023-02-04T07:54:18.711Z,98904.61
2023-02-04T07:57:21.917Z,98909.46
2023-02-04T08:00:25.361Z,98914.45
2023-02-04T08:03:28.659Z,98925.73
2023-02-04T08:06:31.902Z,98931.83
2023-02-04T08:09:35.123Z,98938.52
2023-02-04T08:12:38.468Z,98944.10
2023-02-04T08:15:41.855Z,98953.30
2023-02-04T08:18:47.830Z,98965.70
2023-02-04T08:21:51.253Z,98975.92
2023-02-04T08:24:54.554Z,98988.69
2023-02-04T08:27:57.832Z,99002.29
2023-02-04T08:31:01.179Z,99013.34
2023-02-04T08:34:05.895Z,99026.42
2023-02-04T08:37:09.066Z,99038.56
2023-02-04T08:40:12.523Z,99048.54
2023-02-04T08:43:15.763Z,99060.19
2023-02-04T08:46:19.140Z,99063.19
2023-02-04T08:49:22.444Z,99070.55
2023-02-04T08:52:25.699Z,99077.16
2023-02-04T08:55:28.923Z,99079.90
2023-02-04T08:58:32.340Z,99076.36
2023-02-04T09:01:35.582Z,99081.05
2023-02-04T09:04:39.009Z,99084.23
2023-02-04T09:07:42.267Z,99091.02
2023-02-04T09:10:45.522Z,99099.48
2023-02-04T09:13:48.769Z,99110.68
2023-02-04T09:16:52.000Z,99116.21
2023-02-04T09:19:55.169Z,99127.63
2023-02-04T09:22:58.396Z,99133.21
2023-02-04T09:26:01.641Z,99141.92
2023-02-04T09:29:05.047Z,99145.94
2023-02-04T09:32:08.370Z,99155.18
2023-02-04T09:35:11.635Z,99166.20
2023-02-04T09:38:15.046Z,99173.84
2023-02-04T09:41:18.506Z,99187.01
2023-02-04T09:44:32.163Z,99198.26
2023-02-04T09:47:36.578Z,99201.34
2023-02-04T09:50:40.002Z,99205.73
2023-02-04T09:53:43.554Z,99215.64
2023-02-04T09:56:48.401Z,99216.91
2023-02-04T09:59:53.842Z,99216.63
2023-02-04T10:03:02.822Z,99214.05
2023-02-04T10:06:08.770Z,99216.47
2023-02-04T10:09:12.969Z,99220.12
2023-02-04T10:12:16.537Z,99221.08
2023-02-04T10:15:20.893Z,99224.55
2023-02-04T10:18:28.921Z,99237.84
2023-02-04T10:21:36.888Z,99238.49
2023-02-04T10:24:40.119Z,99240.99
2023-02-04T10:27:52.208Z,99247.17
2023-02-04T10:30:55.542Z,99251.13
2023-02-04T10:34:19.959Z,99252.48
2023-02-04T10:37:23.249Z,99251.36
2023-02-04T10:40:36.541Z,99254.35
2023-02-04T10:43:39.845Z,99263.08
2023-02-04T10:46:43.213Z,99267.44
2023-02-04T10:50:06.262Z,99266.89
2023-02-04T10:53:30.093Z,99279.20
2023-02-04T10:56:33.418Z,99282.67
2023-02-04T10:59:37.117Z,99285.64
2023-02-04T11:02:44.898Z,99285.24
2023-02-04T11:05:48.236Z,99287.85
2023-02-04T11:08:53.689Z,99288.23
2023-02-04T11:11:58.329Z,99288.09
2023-02-04T11:15:01.575Z,99290.65
2023-02-04T11:18:11.371Z,99286.07
2023-02-04T11:21:36.363Z,99297.18
2023-02-04T11:24:39.681Z,99297.79
2023-02-04T11:27:43.955Z,99299.63
2023-02-04T11:30:58.769Z,99303.08
2023-02-04T11:34:18.642Z,99313.34
2023-02-04T11:37:34.163Z,99312.70
2023-02-04T11:40:38.665Z,99319.52
2023-02-04T11:43:41.932Z,99318.45
2023-02-04T11:46:51.564Z,99314.64
2023-02-04T11:50:04.504Z,99314.98
2023-02-04T11:53:11.629Z,99317.89
2023-02-04T11:56:19.239Z,99312.23
2023-02-04T11:59:22.546Z,99310.60
2023-02-04T12:02:26.531Z,99313.89
2023-02-04T12:05:41.909Z,99320.80
2023-02-04T12:08:45.166Z,99325.33
2023-02-04T12:12:02.826Z,99332.25
2023-02-04T12:15:16.394Z,99330.39
2023-02-04T12:18:19.579Z,99333.23
2023-02-04T12:21:23.684Z,99339.03
2023-02-04T12:24:27.342Z,99351.58
2023-02-04T12:27:30.550Z,99353.06
2023-02-04T12:30:33.741Z,99356.76
2023-02-04T12:33:36.975Z,99354.81
2023-02-04T12:36:40.402Z,99355.52
2023-02-04T12:39:43.596Z,99365.00
2023-02-04T12:42:46.902Z,99361.66
2023-02-04T12:45:50.198Z,99364.60
2023-02-04T12:48:53.541Z,99371.75
2023-02-04T12:51:59.263Z,99380.27
2023-02-04T12:55:04.995Z,99383.15
2023-02-04T12:58:08.537Z,99387.58
2023-02-04T13:01:11.854Z,99393.27
2023-02-04T13:04:15.084Z,99396.38
2023-02-04T13:07:18.448Z,99403.73
2023-02-04T13:10:23.989Z,99411.02
2023-02-04T13:13:27.178Z,99406.92
2023-02-04T13:16:30.365Z,99406.69
2023-02-04T13:19:34.166Z,99408.89
2023-02-04T13:22:37.396Z,99411.58
2023-02-04T13:25:40.945Z,99414.73
2023-02-04T13:28:44.095Z,99416.29
2023-02-04T13:31:47.283Z,99414.94
2023-02-04T13:34:50.586Z,99418.83
2023-02-04T13:37:55.694Z,99418.86
2023-02-04T13:40:59.687Z,99429.46
2023-02-04T13:44:04.322Z,99432.61
2023-02-04T13:47:07.628Z,99437.36
2023-02-04T13:50:10.894Z,99434.50
2023-02-04T13:53:14.085Z,99435.73
2023-02-04T13:56:17.361Z,99432.12
2023-02-04T13:59:21.103Z,99435.83
2023-02-04T14:02:25.318Z,99433.02
2023-02-04T14:05:28.660Z,99440.66
2023-02-04T14:08:31.992Z,99444.35
2023-02-04T14:11:35.553Z,99446.69
2023-02-04T14:14:38.805Z,99447.80
2023-02-04T14:17:42.057Z,99447.05
2023-02-04T14:20:45.399Z,99450.36
2023-02-04T14:23:48.766Z,99453.35
2023-02-04T14:26:52.181Z,99454.76
2023-02-04T14:29:55.440Z,99455.56
2023-02-04T14:32:58.999Z,99452.14
2023-02-04T14:36:02.160Z,99465.66
2023-02-04T14:39:05.596Z,99469.92
2023-02-04T14:42:08.867Z,99476.80
2023-02-04T14:45:13.780Z,99471.48
2023-02-04T14:48:17.180Z,99467.17
2023-02-04T14:51:20.425Z,99468.73
2023-02-04T14:54:24.021Z,99477.60
2023-02-04T14:57:27.222Z,99482.02
2023-02-04T15:00:30.657Z,99484.16
2023-02-04T15:03:33.989Z,99490.30
2023-02-04T15:06:37.875Z,99491.73
2023-02-04T15:09:42.556Z,99494.84
2023-02-04T15:12:45.839Z,99497.71
2023-02-04T15:15:49.096Z,99493.70
2023-02-04T15:18:52.596Z,99498.95
2023-02-04T15:21:55.815Z,99504.05
2023-02-04T15:24:59.140Z,99504.15
2023-02-04T15:28:02.422Z,99502.98
2023-02-04T15:31:05.942Z,99502.20
2023-02-04T15:34:09.159Z,99502.89
2023-02-04T15:37:12.488Z,99505.05
2023-02-04T15:40:15.747Z,99505.86
2023-02-04T15:43:18.957Z,99505.22
2023-02-04T15:46:22.275Z,99511.66
2023-02-04T15:49:25.564Z,99514.92
2023-02-04T15:52:29.437Z,99518.42
2023-02-04T15:55:32.864Z,99523.97
2023-02-04T15:58:36.898Z,99526.70
2023-02-04T16:01:40.155Z,99532.46
2023-02-04T16:04:45.448Z,99543.20
2023-02-04T16:07:48.985Z,99545.86
2023-02-04T16:10:54.183Z,99550.74
2023-02-04T16:13:58.751Z,99552.44
2023-02-04T16:17:01.951Z,99555.80
2023-02-04T16:20:06.422Z,99556.67
2023-02-04T16:23:09.637Z,99559.47
2023-02-04T16:26:13.418Z,99558.74
2023-02-04T16:29:17.436Z,99565.09
2023-02-04T16:32:21.054Z,99564.30
2023-02-04T16:35:24.319Z,99565.74
2023-02-04T16:38:28.739Z,99569.84
2023-02-04T16:41:32.034Z,99576.16
2023-02-04T16:44:37.395Z,99576.25
2023-02-04T16:47:40.732Z,99576.39
2023-02-04T16:50:44.204Z,99573.26
2023-02-04T16:53:47.535Z,99577.94
2023-02-04T16:56:50.980Z,99576.55
2023-02-04T16:59:54.179Z,99574.80
2023-02-04T17:02:58.135Z,99568.98
2023-02-04T17:06:01.656Z,99572.48
2023-02-04T17:09:04.935Z,99570.91
2023-02-04T17:12:08.264Z,99565.08
2023-02-04T17:15:11.515Z,99568.86
2023-02-04T17:18:14.704Z,99566.55
2023-02-04T17:21:18.515Z,99566.56
2023-02-04T17:24:22.252Z,99568.19
2023-02-04T17:27:26.211Z,99559.83
2023-02-04T17:30:30.423Z,99564.73
2023-02-04T17:33:37.706Z,99571.60
2023-02-04T17:36:40.967Z,99569.26
2023-02-04T17:39:44.829Z,99572.32
2023-02-04T17:42:49.074Z,99577.34
2023-02-04T17:45:52.633Z,99578.52
2023-02-04T17:48:59.307Z,99578.01
2023-02-04T17:52:03.505Z,99584.47
2023-02-04T17:55:31.257Z,99589.51
2023-02-04T17:58:36.355Z,99594.74
2023-02-04T18:01:42.891Z,99601.16
2023-02-04T18:04:46.530Z,99605.18
2023-02-04T18:07:58.955Z,99611.65
2023-02-04T18:11:02.171Z,99613.39
2023-02-04T18:14:24.548Z,99615.84
2023-02-04T18:17:28.613Z,99614.14
2023-02-04T18:20:32.644Z,99618.60
2023-02-04T18:23:36.200Z,99617.72
2023-02-04T18:26:49.907Z,99623.39
2023-02-04T18:29:55.750Z,99624.31
2023-02-04T18:32:59.815Z,99625.49
2023-02-04T18:36:03.122Z,99626.63
2023-02-04T18:39:19.088Z,99626.95
2023-02-04T18:42:25.830Z,99619.33
2023-02-04T18:45:31.892Z,99618.61
2023-02-04T18:49:00.863Z,99614.19
2023-02-04T18:52:18.974Z,99620.36
2023-02-04T18:55:37.711Z,99619.80
2023-02-04T18:58:42.843Z,99617.52
2023-02-04T19:01:48.104Z,99623.73
2023-02-04T19:04:53.381Z,99628.89
2023-02-04T19:08:04.463Z,99630.95
2023-02-04T19:11:25.280Z,99641.31
2023-02-04T19:14:40.211Z,99652.23
2023-02-04T19:17:43.409Z,99651.15
2023-02-04T19:20:50.765Z,99648.27
2023-02-04T19:24:23.759Z,99647.42
2023-02-04T19:27:31.951Z,99649.95
2023-02-04T19:30:54.043Z,99649.50
2023-02-04T19:33:57.476Z,99650.48
2023-02-04T19:37:00.769Z,99653.45
2023-02-04T19:40:24.289Z,99652.94
2023-02-04T19:43:40.017Z,99653.98
2023-02-04T19:46:44.050Z,99652.92
2023-02-04T19:49:47.322Z,99654.00
2023-02-04T19:53:12.229Z,99654.26
2023-02-04T19:56:33.572Z,99659.16
2023-02-04T19:59:36.838Z,99659.23
2023-02-04T20:02:40.463Z,99661.92
2023-02-04T20:05:44.293Z,99666.82
2023-02-04T20:08:54.567Z,99672.95
2023-02-04T20:12:06.108Z,99679.18
2023-02-04T20:15:20.200Z,99675.02
2023-02-04T20:18:28.296Z,99675.23
2023-02-04T20:21:32.478Z,99679.66
2023-02-04T20:24:37.978Z,99679.86
2023-02-04T20:27:41.822Z,99682.39
2023-02-04T20:30:46.342Z,99684.10
2023-02-04T20:33:59.453Z,99686.88
2023-02-04T20:37:02.871Z,99690.63
2023-02-04T20:40:18.832Z,99691.59
2023-02-04T20:43:24.188Z,99693.54
2023-02-04T20:46:27.663Z,99694.65
2023-02-04T20:49:40.868Z,99690.86
2023-02-04T20:52:45.619Z,99691.27
2023-02-04T20:55:51.886Z,99693.02
2023-02-04T20:59:33.719Z,99702.48
2023-02-04T21:02:38.917Z,99709.28
2023-02-04T21:05:42.291Z,99709.62
2023-02-04T21:08:47.970Z,99715.72
2023-02-04T21:11:54.300Z,99724.79
2023-02-04T21:14:57.544Z,99729.90
2023-02-04T21:18:00.915Z,99736.04
2023-02-04T21:21:07.393Z,99740.04
2023-02-04T21:24:10.811Z,99740.83
2023-02-04T21:27:15.248Z,99745.65
2023-02-04T21:30:18.895Z,99742.48
2023-02-04T21:33:22.222Z,99747.80
2023-02-04T21:36:27.904Z,99749.40
2023-02-04T21:39:31.213Z,99749.45
2023-02-04T21:42:34.507Z,99755.52
2023-02-04T21:45:39.729Z,99758.05
2023-02-04T21:48:44.239Z,99758.20
2023-02-04T21:51:47.595Z,99756.15
2023-02-04T21:54:51.127Z,99748.44
2023-02-04T21:57:54.437Z,99754.70
2023-02-04T22:00:57.739Z,99756.14
2023-02-04T22:04:01.380Z,99760.70
2023-02-04T22:07:04.903Z,99759.86
2023-02-04T22:10:12.200Z,99760.41
2023-02-04T22:13:21.299Z,99765.01
2023-02-04T22:16:24.622Z,99760.20
2023-02-04T22:19:27.969Z,99763.59
2023-02-04T22:22:31.340Z,99766.98
2023-02-04T22:25:34.938Z,99767.25
2023-02-04T22:28:41.683Z,99769.14
2023-02-04T22:31:45.024Z,99775.57
2023-02-04T22:35:15.162Z,99775.96
2023-02-04T22:38:20.233Z,99775.98
2023-02-04T22:41:23.673Z,99779.96
2023-02-04T22:44:27.300Z,99788.72
2023-02-04T22:47:30.902Z,99792.89
2023-02-04T22:50:34.242Z,99790.97
2023-02-04T22:53:37.503Z,99797.57
2023-02-04T22:56:40.828Z,99797.35
2023-02-04T22:59:44.180Z,99798.69
2023-02-04T23:02:47.594Z,99803.70
2023-02-04T23:05:51.078Z,99802.14
2023-02-04T23:08:54.482Z,99799.15
2023-02-04T23:11:58.584Z,99801.66
2023-02-04T23:15:02.764Z,99803.59
2023-02-04T23:18:06.120Z,99803.41
2023-02-04T23:21:10.324Z,99808.87
2023-02-04T23:24:13.650Z,99810.11
2023-02-04T23:27:17.134Z,99812.48
2023-02-04T23:30:20.628Z,99818.59
2023-02-04T23:33:24.251Z,99817.13
2023-02-04T23:36:27.514Z,99818.73
2023-02-04T23:39:31.107Z,99822.73
2023-02-04T23:42:34.463Z,99829.85
2023-02-04T23:45:38.030Z,99828.46
2023-02-04T23:48:41.325Z,99825.58
2023-02-04T23:51:44.739Z,99824.11
2023-02-04T23:54:48.108Z,99821.40
2023-02-04T23:57:51.928Z,99820.48
